sensor_id;sensor_type;location;lat;lon;timestamp;temperature;humidity
26262;DHT22;13988;52.446;13.280;2023-08-17T00:01:26;20.60;99.90
26262;DHT22;13988;52.446;13.280;2023-08-17T00:03:51;20.60;99.90
26262;DHT22;13988;52.446;13.280;2023-08-17T00:06:17;20.60;99.90
26262;DHT22;13988;52.446;13.280;2023-08-17T00:08:42;20.50;99.90
26262;DHT22;13988;52.446;13.280;2023-08-17T00:11:08;20.50;99.90
26262;DHT22;13988;52.446;13.280;2023-08-17T00:13:34;20.40;99.90
26262;DHT22;13988;52.446;13.280;2023-08-17T00:16:00;20.50;99.90
26262;DHT22;13988;52.446;13.280;2023-08-17T00:18:26;20.50;99.90
26262;DHT22;13988;52.446;13.280;2023-08-17T00:20:51;20.40;99.90
26262;DHT22;13988;52.446;13.280;2023-08-17T00:23:17;20.40;99.90
26262;DHT22;13988;52.446;13.280;2023-08-17T00:25:43;20.30;99.90
26262;DHT22;13988;52.446;13.280;2023-08-17T00:28:09;20.40;99.90
26262;DHT22;13988;52.446;13.280;2023-08-17T00:30:34;20.30;99.90
26262;DHT22;13988;52.446;13.280;2023-08-17T00:33:02;20.30;99.90
26262;DHT22;13988;52.446;13.280;2023-08-17T00:35:28;20.20;99.90
26262;DHT22;13988;52.446;13.280;2023-08-17T00:37:53;20.20;99.90
26262;DHT22;13988;52.446;13.280;2023-08-17T00:40:19;20.20;99.90
26262;DHT22;13988;52.446;13.280;2023-08-17T00:42:45;20.10;99.90
26262;DHT22;13988;52.446;13.280;2023-08-17T00:45:10;20.10;99.90
26262;DHT22;13988;52.446;13.280;2023-08-17T00:47:36;20.00;99.90
26262;DHT22;13988;52.446;13.280;2023-08-17T00:50:03;20.00;99.90
26262;DHT22;13988;52.446;13.280;2023-08-17T00:52:30;19.90;99.90
26262;DHT22;13988;52.446;13.280;2023-08-17T00:54:58;20.00;99.90
26262;DHT22;13988;52.446;13.280;2023-08-17T00:57:25;20.00;99.90
26262;DHT22;13988;52.446;13.280;2023-08-17T00:59:50;20.00;99.90
26262;DHT22;13988;52.446;13.280;2023-08-17T01:02:17;20.00;99.90
26262;DHT22;13988;52.446;13.280;2023-08-17T01:04:43;20.00;99.90
26262;DHT22;13988;52.446;13.280;2023-08-17T01:07:09;20.00;99.90
26262;DHT22;13988;52.446;13.280;2023-08-17T01:09:35;20.00;99.90
26262;DHT22;13988;52.446;13.280;2023-08-17T01:12:12;19.90;99.90
26262;DHT22;13988;52.446;13.280;2023-08-17T01:14:54;19.90;99.90
26262;DHT22;13988;52.446;13.280;2023-08-17T01:17:39;19.90;99.90
26262;DHT22;13988;52.446;13.280;2023-08-17T01:20:07;19.80;99.90
26262;DHT22;13988;52.446;13.280;2023-08-17T01:22:35;19.80;99.90
26262;DHT22;13988;52.446;13.280;2023-08-17T01:25:02;19.80;99.90
26262;DHT22;13988;52.446;13.280;2023-08-17T01:27:40;19.70;99.90
26262;DHT22;13988;52.446;13.280;2023-08-17T01:30:07;19.70;99.90
26262;DHT22;13988;52.446;13.280;2023-08-17T01:37:58;19.70;99.90
26262;DHT22;13988;52.446;13.280;2023-08-17T01:40:27;19.60;99.90
26262;DHT22;13988;52.446;13.280;2023-08-17T01:42:54;19.60;99.90
26262;DHT22;13988;52.446;13.280;2023-08-17T01:45:21;19.60;99.90
26262;DHT22;13988;52.446;13.280;2023-08-17T01:47:47;19.60;99.90
26262;DHT22;13988;52.446;13.280;2023-08-17T01:50:14;19.50;99.90
26262;DHT22;13988;52.446;13.280;2023-08-17T01:52:39;19.50;99.90
26262;DHT22;13988;52.446;13.280;2023-08-17T01:55:05;19.50;99.90
26262;DHT22;13988;52.446;13.280;2023-08-17T01:57:31;19.50;99.90
26262;DHT22;13988;52.446;13.280;2023-08-17T01:59:57;19.40;99.90
26262;DHT22;13988;52.446;13.280;2023-08-17T02:02:22;19.40;99.90
26262;DHT22;13988;52.446;13.280;2023-08-17T02:04:48;19.40;99.90
26262;DHT22;13988;52.446;13.280;2023-08-17T02:07:14;19.40;99.90
26262;DHT22;13988;52.446;13.280;2023-08-17T02:09:39;19.40;99.90
26262;DHT22;13988;52.446;13.280;2023-08-17T02:12:05;19.30;99.90
26262;DHT22;13988;52.446;13.280;2023-08-17T02:14:31;19.30;99.90
26262;DHT22;13988;52.446;13.280;2023-08-17T02:16:57;19.30;99.90
26262;DHT22;13988;52.446;13.280;2023-08-17T02:19:22;19.30;99.90
26262;DHT22;13988;52.446;13.280;2023-08-17T02:21:48;19.30;99.90
26262;DHT22;13988;52.446;13.280;2023-08-17T02:24:13;19.30;99.90
26262;DHT22;13988;52.446;13.280;2023-08-17T02:26:39;19.30;99.90
26262;DHT22;13988;52.446;13.280;2023-08-17T02:29:05;19.30;99.90
26262;DHT22;13988;52.446;13.280;2023-08-17T02:31:31;19.20;99.90
26262;DHT22;13988;52.446;13.280;2023-08-17T02:33:57;19.20;99.90
26262;DHT22;13988;52.446;13.280;2023-08-17T02:36:26;19.20;99.90
26262;DHT22;13988;52.446;13.280;2023-08-17T02:38:52;19.20;99.90
26262;DHT22;13988;52.446;13.280;2023-08-17T02:41:18;19.20;99.90
26262;DHT22;13988;52.446;13.280;2023-08-17T02:43:44;19.20;99.90
26262;DHT22;13988;52.446;13.280;2023-08-17T02:46:09;19.20;99.90
26262;DHT22;13988;52.446;13.280;2023-08-17T02:48:36;19.20;99.90
26262;DHT22;13988;52.446;13.280;2023-08-17T02:51:01;19.20;99.90
26262;DHT22;13988;52.446;13.280;2023-08-17T02:53:27;19.10;99.90
26262;DHT22;13988;52.446;13.280;2023-08-17T02:55:52;19.10;99.90
26262;DHT22;13988;52.446;13.280;2023-08-17T02:58:18;19.10;99.90
26262;DHT22;13988;52.446;13.280;2023-08-17T03:00:44;19.20;99.90
26262;DHT22;13988;52.446;13.280;2023-08-17T03:03:10;19.10;99.90
26262;DHT22;13988;52.446;13.280;2023-08-17T03:05:35;19.10;99.90
26262;DHT22;13988;52.446;13.280;2023-08-17T03:08:01;19.10;99.90
26262;DHT22;13988;52.446;13.280;2023-08-17T03:10:26;19.00;99.90
26262;DHT22;13988;52.446;13.280;2023-08-17T03:12:52;19.10;99.90
26262;DHT22;13988;52.446;13.280;2023-08-17T03:15:18;19.10;99.90
26262;DHT22;13988;52.446;13.280;2023-08-17T03:17:43;19.00;99.90
26262;DHT22;13988;52.446;13.280;2023-08-17T03:20:09;19.00;99.90
26262;DHT22;13988;52.446;13.280;2023-08-17T03:22:35;19.00;99.90
26262;DHT22;13988;52.446;13.280;2023-08-17T03:25:01;18.90;99.90
26262;DHT22;13988;52.446;13.280;2023-08-17T03:27:26;18.90;99.90
26262;DHT22;13988;52.446;13.280;2023-08-17T03:29:54;18.90;99.90
26262;DHT22;13988;52.446;13.280;2023-08-17T03:32:19;19.00;99.90
26262;DHT22;13988;52.446;13.280;2023-08-17T03:34:45;19.00;99.90
26262;DHT22;13988;52.446;13.280;2023-08-17T03:37:11;19.00;99.90
26262;DHT22;13988;52.446;13.280;2023-08-17T03:39:37;19.00;99.90
26262;DHT22;13988;52.446;13.280;2023-08-17T03:42:03;19.00;99.90
26262;DHT22;13988;52.446;13.280;2023-08-17T03:44:28;18.90;99.90
26262;DHT22;13988;52.446;13.280;2023-08-17T03:46:54;19.00;99.90
26262;DHT22;13988;52.446;13.280;2023-08-17T03:49:19;19.00;99.90
26262;DHT22;13988;52.446;13.280;2023-08-17T03:51:45;19.00;99.90
26262;DHT22;13988;52.446;13.280;2023-08-17T03:54:12;19.00;99.90
26262;DHT22;13988;52.446;13.280;2023-08-17T03:56:37;19.00;99.90
26262;DHT22;13988;52.446;13.280;2023-08-17T03:59:04;19.00;99.90
26262;DHT22;13988;52.446;13.280;2023-08-17T04:01:30;19.00;99.90
26262;DHT22;13988;52.446;13.280;2023-08-17T04:03:55;19.00;99.90
26262;DHT22;13988;52.446;13.280;2023-08-17T04:06:22;19.00;99.90
26262;DHT22;13988;52.446;13.280;2023-08-17T04:08:48;19.00;99.90
26262;DHT22;13988;52.446;13.280;2023-08-17T04:11:13;19.00;99.90
26262;DHT22;13988;52.446;13.280;2023-08-17T04:13:39;19.00;99.90
26262;DHT22;13988;52.446;13.280;2023-08-17T04:16:04;18.90;99.90
26262;DHT22;13988;52.446;13.280;2023-08-17T04:18:30;19.00;99.90
26262;DHT22;13988;52.446;13.280;2023-08-17T04:20:56;19.10;99.90
26262;DHT22;13988;52.446;13.280;2023-08-17T04:23:21;19.10;99.90
26262;DHT22;13988;52.446;13.280;2023-08-17T04:25:47;19.10;99.90
26262;DHT22;13988;52.446;13.280;2023-08-17T04:28:13;19.10;99.90
26262;DHT22;13988;52.446;13.280;2023-08-17T04:30:39;19.10;99.90
26262;DHT22;13988;52.446;13.280;2023-08-17T04:33:05;19.20;99.90
26262;DHT22;13988;52.446;13.280;2023-08-17T04:35:33;19.20;99.90
26262;DHT22;13988;52.446;13.280;2023-08-17T04:37:59;19.20;99.90
26262;DHT22;13988;52.446;13.280;2023-08-17T04:40:24;19.20;99.90
26262;DHT22;13988;52.446;13.280;2023-08-17T04:42:50;19.30;99.90
26262;DHT22;13988;52.446;13.280;2023-08-17T04:45:15;19.30;99.90
26262;DHT22;13988;52.446;13.280;2023-08-17T04:47:41;19.30;99.90
26262;DHT22;13988;52.446;13.280;2023-08-17T04:50:07;19.30;99.90
26262;DHT22;13988;52.446;13.280;2023-08-17T04:52:33;19.40;99.90
26262;DHT22;13988;52.446;13.280;2023-08-17T04:54:58;19.40;99.90
26262;DHT22;13988;52.446;13.280;2023-08-17T04:57:24;19.40;99.90
26262;DHT22;13988;52.446;13.280;2023-08-17T04:59:51;19.40;99.90
26262;DHT22;13988;52.446;13.280;2023-08-17T05:02:17;19.40;99.90
26262;DHT22;13988;52.446;13.280;2023-08-17T05:04:42;19.30;99.90
26262;DHT22;13988;52.446;13.280;2023-08-17T05:07:08;19.30;99.90
26262;DHT22;13988;52.446;13.280;2023-08-17T05:09:34;19.30;99.90
26262;DHT22;13988;52.446;13.280;2023-08-17T05:12:00;19.30;99.90
26262;DHT22;13988;52.446;13.280;2023-08-17T05:14:25;19.30;99.90
26262;DHT22;13988;52.446;13.280;2023-08-17T05:16:51;19.40;99.90
26262;DHT22;13988;52.446;13.280;2023-08-17T05:19:16;19.30;99.90
26262;DHT22;13988;52.446;13.280;2023-08-17T05:21:42;19.30;99.90
26262;DHT22;13988;52.446;13.280;2023-08-17T05:24:08;19.30;99.90
26262;DHT22;13988;52.446;13.280;2023-08-17T05:26:33;19.40;99.90
26262;DHT22;13988;52.446;13.280;2023-08-17T05:28:59;19.40;99.90
26262;DHT22;13988;52.446;13.280;2023-08-17T05:31:25;19.50;99.90
26262;DHT22;13988;52.446;13.280;2023-08-17T05:33:50;19.50;99.90
26262;DHT22;13988;52.446;13.280;2023-08-17T05:36:17;19.50;99.90
26262;DHT22;13988;52.446;13.280;2023-08-17T05:38:42;19.60;99.90
26262;DHT22;13988;52.446;13.280;2023-08-17T05:41:08;19.70;99.90
26262;DHT22;13988;52.446;13.280;2023-08-17T05:43:34;19.70;99.90
26262;DHT22;13988;52.446;13.280;2023-08-17T05:45:59;19.80;99.90
26262;DHT22;13988;52.446;13.280;2023-08-17T05:48:25;19.80;99.90
26262;DHT22;13988;52.446;13.280;2023-08-17T05:50:51;19.70;99.90
26262;DHT22;13988;52.446;13.280;2023-08-17T05:53:16;19.60;99.90
26262;DHT22;13988;52.446;13.280;2023-08-17T05:55:42;19.60;99.90
26262;DHT22;13988;52.446;13.280;2023-08-17T05:58:07;19.50;99.90
26262;DHT22;13988;52.446;13.280;2023-08-17T06:00:33;19.40;99.90
26262;DHT22;13988;52.446;13.280;2023-08-17T06:02:59;19.40;99.90
26262;DHT22;13988;52.446;13.280;2023-08-17T06:05:28;19.40;99.90
26262;DHT22;13988;52.446;13.280;2023-08-17T06:07:54;19.50;99.90
26262;DHT22;13988;52.446;13.280;2023-08-17T06:10:20;19.40;99.90
26262;DHT22;13988;52.446;13.280;2023-08-17T06:12:53;19.40;99.90
26262;DHT22;13988;52.446;13.280;2023-08-17T06:15:19;19.50;99.90
26262;DHT22;13988;52.446;13.280;2023-08-17T06:17:45;19.50;99.90
26262;DHT22;13988;52.446;13.280;2023-08-17T06:20:11;19.50;99.90
26262;DHT22;13988;52.446;13.280;2023-08-17T06:22:37;19.60;99.90
26262;DHT22;13988;52.446;13.280;2023-08-17T06:25:04;19.70;99.90
26262;DHT22;13988;52.446;13.280;2023-08-17T06:27:30;19.70;99.90
26262;DHT22;13988;52.446;13.280;2023-08-17T06:29:56;19.80;99.90
26262;DHT22;13988;52.446;13.280;2023-08-17T06:32:21;19.80;99.90
26262;DHT22;13988;52.446;13.280;2023-08-17T06:34:47;19.80;99.90
26262;DHT22;13988;52.446;13.280;2023-08-17T06:37:13;19.80;99.90
26262;DHT22;13988;52.446;13.280;2023-08-17T06:39:38;19.70;99.90
26262;DHT22;13988;52.446;13.280;2023-08-17T06:42:04;19.80;99.90
26262;DHT22;13988;52.446;13.280;2023-08-17T06:44:29;19.80;99.90
26262;DHT22;13988;52.446;13.280;2023-08-17T06:46:56;19.70;99.90
26262;DHT22;13988;52.446;13.280;2023-08-17T06:49:22;19.80;99.90
26262;DHT22;13988;52.446;13.280;2023-08-17T06:51:48;19.90;99.90
26262;DHT22;13988;52.446;13.280;2023-08-17T06:54:13;19.80;99.90
26262;DHT22;13988;52.446;13.280;2023-08-17T06:56:39;19.80;99.90
26262;DHT22;13988;52.446;13.280;2023-08-17T06:59:05;19.90;99.90
26262;DHT22;13988;52.446;13.280;2023-08-17T07:01:30;19.80;99.90
26262;DHT22;13988;52.446;13.280;2023-08-17T07:03:56;19.80;99.90
26262;DHT22;13988;52.446;13.280;2023-08-17T07:06:23;19.90;99.90
26262;DHT22;13988;52.446;13.280;2023-08-17T07:08:49;19.90;99.90
26262;DHT22;13988;52.446;13.280;2023-08-17T07:11:14;20.00;99.90
26262;DHT22;13988;52.446;13.280;2023-08-17T07:13:40;19.90;99.90
26262;DHT22;13988;52.446;13.280;2023-08-17T07:16:05;20.00;99.90
26262;DHT22;13988;52.446;13.280;2023-08-17T07:18:31;20.10;99.90
26262;DHT22;13988;52.446;13.280;2023-08-17T07:20:57;20.10;99.90
26262;DHT22;13988;52.446;13.280;2023-08-17T07:23:22;19.90;99.90
26262;DHT22;13988;52.446;13.280;2023-08-17T07:25:48;19.80;99.90
26262;DHT22;13988;52.446;13.280;2023-08-17T07:28:14;19.90;99.90
26262;DHT22;13988;52.446;13.280;2023-08-17T07:30:41;20.00;99.90
26262;DHT22;13988;52.446;13.280;2023-08-17T07:33:06;20.00;99.90
26262;DHT22;13988;52.446;13.280;2023-08-17T07:35:32;20.00;99.90
26262;DHT22;13988;52.446;13.280;2023-08-17T07:37:58;19.70;99.90
26262;DHT22;13988;52.446;13.280;2023-08-17T07:40:24;19.60;99.90
26262;DHT22;13988;52.446;13.280;2023-08-17T07:42:49;19.70;99.90
26262;DHT22;13988;52.446;13.280;2023-08-17T07:45:15;19.70;99.90
26262;DHT22;13988;52.446;13.280;2023-08-17T07:47:40;19.90;99.90
26262;DHT22;13988;52.446;13.280;2023-08-17T07:50:07;20.20;99.90
26262;DHT22;13988;52.446;13.280;2023-08-17T07:52:33;20.40;99.90
26262;DHT22;13988;52.446;13.280;2023-08-17T07:54:58;20.70;99.90
26262;DHT22;13988;52.446;13.280;2023-08-17T07:57:24;20.90;99.90
26262;DHT22;13988;52.446;13.280;2023-08-17T07:59:50;21.10;99.90
26262;DHT22;13988;52.446;13.280;2023-08-17T08:02:16;21.10;99.90
26262;DHT22;13988;52.446;13.280;2023-08-17T08:04:42;21.30;99.90
26262;DHT22;13988;52.446;13.280;2023-08-17T08:07:09;21.20;99.90
26262;DHT22;13988;52.446;13.280;2023-08-17T08:09:35;21.20;99.90
26262;DHT22;13988;52.446;13.280;2023-08-17T08:12:01;21.10;99.90
26262;DHT22;13988;52.446;13.280;2023-08-17T08:14:27;21.20;99.90
26262;DHT22;13988;52.446;13.280;2023-08-17T08:16:53;21.30;99.90
26262;DHT22;13988;52.446;13.280;2023-08-17T08:19:18;21.50;99.90
26262;DHT22;13988;52.446;13.280;2023-08-17T08:21:44;21.70;99.90
26262;DHT22;13988;52.446;13.280;2023-08-17T08:24:09;21.60;99.90
26262;DHT22;13988;52.446;13.280;2023-08-17T08:26:35;21.50;99.90
26262;DHT22;13988;52.446;13.280;2023-08-17T08:29:01;21.40;99.90
26262;DHT22;13988;52.446;13.280;2023-08-17T08:31:26;21.50;99.90
26262;DHT22;13988;52.446;13.280;2023-08-17T08:33:52;21.60;99.90
26262;DHT22;13988;52.446;13.280;2023-08-17T08:36:18;21.60;99.90
26262;DHT22;13988;52.446;13.280;2023-08-17T08:38:44;21.50;99.90
26262;DHT22;13988;52.446;13.280;2023-08-17T08:41:11;21.50;99.90
26262;DHT22;13988;52.446;13.280;2023-08-17T08:43:38;21.40;99.90
26262;DHT22;13988;52.446;13.280;2023-08-17T08:46:04;21.50;99.90
26262;DHT22;13988;52.446;13.280;2023-08-17T08:48:31;21.60;99.90
26262;DHT22;13988;52.446;13.280;2023-08-17T08:51:00;21.50;99.90
26262;DHT22;13988;52.446;13.280;2023-08-17T08:53:42;21.30;99.90
26262;DHT22;13988;52.446;13.280;2023-08-17T08:56:11;21.30;99.90
26262;DHT22;13988;52.446;13.280;2023-08-17T08:58:41;21.40;99.90
26262;DHT22;13988;52.446;13.280;2023-08-17T09:01:10;21.50;99.90
26262;DHT22;13988;52.446;13.280;2023-08-17T09:03:36;21.60;99.90
26262;DHT22;13988;52.446;13.280;2023-08-17T09:06:02;21.80;99.90
26262;DHT22;13988;52.446;13.280;2023-08-17T09:08:29;21.90;99.90
26262;DHT22;13988;52.446;13.280;2023-08-17T09:10:57;22.00;99.90
26262;DHT22;13988;52.446;13.280;2023-08-17T09:13:22;22.10;99.90
26262;DHT22;13988;52.446;13.280;2023-08-17T09:15:48;22.30;99.90
26262;DHT22;13988;52.446;13.280;2023-08-17T09:18:16;22.40;99.90
26262;DHT22;13988;52.446;13.280;2023-08-17T09:23:21;22.70;99.90
26262;DHT22;13988;52.446;13.280;2023-08-17T09:25:49;22.80;99.90
26262;DHT22;13988;52.446;13.280;2023-08-17T09:28:17;22.90;99.90
26262;DHT22;13988;52.446;13.280;2023-08-17T09:33:15;23.10;99.90
26262;DHT22;13988;52.446;13.280;2023-08-17T09:35:42;23.10;99.90
26262;DHT22;13988;52.446;13.280;2023-08-17T09:38:07;22.90;99.90
26262;DHT22;13988;52.446;13.280;2023-08-17T09:40:33;22.80;99.90
26262;DHT22;13988;52.446;13.280;2023-08-17T09:42:59;22.80;99.90
26262;DHT22;13988;52.446;13.280;2023-08-17T09:45:27;22.70;99.90
26262;DHT22;13988;52.446;13.280;2023-08-17T09:47:53;22.80;99.90
26262;DHT22;13988;52.446;13.280;2023-08-17T09:50:22;22.70;99.90
26262;DHT22;13988;52.446;13.280;2023-08-17T09:52:48;22.80;99.90
26262;DHT22;13988;52.446;13.280;2023-08-17T09:55:18;22.80;99.90
26262;DHT22;13988;52.446;13.280;2023-08-17T09:57:44;22.80;99.90
26262;DHT22;13988;52.446;13.280;2023-08-17T10:00:11;22.80;99.90
26262;DHT22;13988;52.446;13.280;2023-08-17T10:02:37;22.80;99.90
26262;DHT22;13988;52.446;13.280;2023-08-17T10:05:04;22.70;99.90
26262;DHT22;13988;52.446;13.280;2023-08-17T10:07:31;22.80;99.90
26262;DHT22;13988;52.446;13.280;2023-08-17T10:10:09;22.90;99.90
26262;DHT22;13988;52.446;13.280;2023-08-17T10:12:47;22.80;99.90
26262;DHT22;13988;52.446;13.280;2023-08-17T10:15:15;22.90;99.90
26262;DHT22;13988;52.446;13.280;2023-08-17T10:18:49;23.00;99.90
26262;DHT22;13988;52.446;13.280;2023-08-17T10:21:00;23.00;99.90
26262;DHT22;13988;52.446;13.280;2023-08-17T10:23:27;23.10;99.90
26262;DHT22;13988;52.446;13.280;2023-08-17T10:25:53;23.40;99.90
26262;DHT22;13988;52.446;13.280;2023-08-17T10:28:23;23.70;99.90
26262;DHT22;13988;52.446;13.280;2023-08-17T10:30:49;23.90;99.90
26262;DHT22;13988;52.446;13.280;2023-08-17T10:33:16;23.90;99.90
26262;DHT22;13988;52.446;13.280;2023-08-17T10:35:42;23.80;99.90
26262;DHT22;13988;52.446;13.280;2023-08-17T10:38:10;23.60;99.90
26262;DHT22;13988;52.446;13.280;2023-08-17T10:40:37;23.60;99.90
26262;DHT22;13988;52.446;13.280;2023-08-17T10:43:04;23.70;99.90
26262;DHT22;13988;52.446;13.280;2023-08-17T10:45:32;23.90;99.90
26262;DHT22;13988;52.446;13.280;2023-08-17T10:50:36;24.30;99.90
26262;DHT22;13988;52.446;13.280;2023-08-17T10:53:12;24.40;99.90
26262;DHT22;13988;52.446;13.280;2023-08-17T10:55:40;24.60;99.90
26262;DHT22;13988;52.446;13.280;2023-08-17T10:58:06;24.20;99.90
26262;DHT22;13988;52.446;13.280;2023-08-17T11:00:37;24.40;99.90
26262;DHT22;13988;52.446;13.280;2023-08-17T11:03:04;24.50;99.90
26262;DHT22;13988;52.446;13.280;2023-08-17T11:08:05;24.40;99.90
26262;DHT22;13988;52.446;13.280;2023-08-17T11:10:31;24.40;99.90
26262;DHT22;13988;52.446;13.280;2023-08-17T11:12:57;24.40;99.90
26262;DHT22;13988;52.446;13.280;2023-08-17T11:15:47;24.50;99.90
26262;DHT22;13988;52.446;13.280;2023-08-17T11:18:14;24.70;99.90
26262;DHT22;13988;52.446;13.280;2023-08-17T11:20:41;24.70;99.90
26262;DHT22;13988;52.446;13.280;2023-08-17T11:23:08;24.90;99.90
26262;DHT22;13988;52.446;13.280;2023-08-17T11:25:34;24.80;99.90
26262;DHT22;13988;52.446;13.280;2023-08-17T11:28:01;24.70;99.90
26262;DHT22;13988;52.446;13.280;2023-08-17T11:30:27;24.50;99.90
26262;DHT22;13988;52.446;13.280;2023-08-17T11:32:54;24.40;99.90
26262;DHT22;13988;52.446;13.280;2023-08-17T11:35:20;24.50;99.90
26262;DHT22;13988;52.446;13.280;2023-08-17T11:37:47;24.40;99.90
26262;DHT22;13988;52.446;13.280;2023-08-17T11:40:14;24.70;99.90
26262;DHT22;13988;52.446;13.280;2023-08-17T11:42:40;24.80;99.90
26262;DHT22;13988;52.446;13.280;2023-08-17T11:45:07;25.40;99.90
26262;DHT22;13988;52.446;13.280;2023-08-17T11:47:39;25.50;99.90
26262;DHT22;13988;52.446;13.280;2023-08-17T11:50:06;25.30;99.90
26262;DHT22;13988;52.446;13.280;2023-08-17T11:52:32;25.30;99.90
26262;DHT22;13988;52.446;13.280;2023-08-17T11:55:08;25.10;99.90
26262;DHT22;13988;52.446;13.280;2023-08-17T11:57:36;24.80;99.90
26262;DHT22;13988;52.446;13.280;2023-08-17T12:00:02;24.70;99.90
26262;DHT22;13988;52.446;13.280;2023-08-17T12:02:29;24.90;99.90
26262;DHT22;13988;52.446;13.280;2023-08-17T12:04:56;25.00;99.90
26262;DHT22;13988;52.446;13.280;2023-08-17T12:07:24;25.40;99.90
26262;DHT22;13988;52.446;13.280;2023-08-17T12:09:50;25.60;99.90
26262;DHT22;13988;52.446;13.280;2023-08-17T12:12:21;25.70;99.90
26262;DHT22;13988;52.446;13.280;2023-08-17T12:14:48;25.50;99.90
26262;DHT22;13988;52.446;13.280;2023-08-17T12:17:23;25.60;99.90
26262;DHT22;13988;52.446;13.280;2023-08-17T12:19:49;25.50;99.90
26262;DHT22;13988;52.446;13.280;2023-08-17T12:22:17;25.30;99.90
26262;DHT22;13988;52.446;13.280;2023-08-17T12:24:43;25.60;99.90
26262;DHT22;13988;52.446;13.280;2023-08-17T12:27:09;25.40;99.90
26262;DHT22;13988;52.446;13.280;2023-08-17T12:29:49;26.00;99.90
26262;DHT22;13988;52.446;13.280;2023-08-17T12:32:16;26.00;99.90
26262;DHT22;13988;52.446;13.280;2023-08-17T12:34:42;26.20;99.90
26262;DHT22;13988;52.446;13.280;2023-08-17T12:37:09;26.20;99.90
26262;DHT22;13988;52.446;13.280;2023-08-17T12:39:35;25.70;99.90
26262;DHT22;13988;52.446;13.280;2023-08-17T12:42:02;25.70;99.90
26262;DHT22;13988;52.446;13.280;2023-08-17T12:44:27;25.80;99.90
26262;DHT22;13988;52.446;13.280;2023-08-17T12:46:53;25.90;99.90
26262;DHT22;13988;52.446;13.280;2023-08-17T12:49:19;25.60;99.90
26262;DHT22;13988;52.446;13.280;2023-08-17T12:51:44;25.90;99.90
26262;DHT22;13988;52.446;13.280;2023-08-17T12:54:10;26.10;99.90
26262;DHT22;13988;52.446;13.280;2023-08-17T12:56:35;26.10;99.90
26262;DHT22;13988;52.446;13.280;2023-08-17T12:59:01;26.40;99.90
26262;DHT22;13988;52.446;13.280;2023-08-17T13:01:27;26.70;99.90
26262;DHT22;13988;52.446;13.280;2023-08-17T13:03:52;26.50;99.90
26262;DHT22;13988;52.446;13.280;2023-08-17T13:06:18;26.70;99.90
26262;DHT22;13988;52.446;13.280;2023-08-17T13:08:44;26.50;99.90
26262;DHT22;13988;52.446;13.280;2023-08-17T13:11:10;26.30;99.90
26262;DHT22;13988;52.446;13.280;2023-08-17T13:13:36;26.10;99.90
26262;DHT22;13988;52.446;13.280;2023-08-17T13:16:01;26.20;99.90
26262;DHT22;13988;52.446;13.280;2023-08-17T13:18:27;26.50;99.90
26262;DHT22;13988;52.446;13.280;2023-08-17T13:20:54;26.70;99.90
26262;DHT22;13988;52.446;13.280;2023-08-17T13:23:19;26.80;99.90
26262;DHT22;13988;52.446;13.280;2023-08-17T13:25:45;26.50;99.90
26262;DHT22;13988;52.446;13.280;2023-08-17T13:28:11;27.00;99.90
26262;DHT22;13988;52.446;13.280;2023-08-17T13:30:38;27.10;99.90
26262;DHT22;13988;52.446;13.280;2023-08-17T13:33:05;27.50;99.90
26262;DHT22;13988;52.446;13.280;2023-08-17T13:35:32;27.40;99.90
26262;DHT22;13988;52.446;13.280;2023-08-17T13:37:58;27.20;99.90
26262;DHT22;13988;52.446;13.280;2023-08-17T13:40:24;27.10;99.90
26262;DHT22;13988;52.446;13.280;2023-08-17T13:42:49;26.90;99.90
26262;DHT22;13988;52.446;13.280;2023-08-17T13:45:15;26.80;99.90
26262;DHT22;13988;52.446;13.280;2023-08-17T13:47:41;26.90;99.90
26262;DHT22;13988;52.446;13.280;2023-08-17T13:50:07;26.70;99.90
26262;DHT22;13988;52.446;13.280;2023-08-17T13:52:34;26.70;99.90
26262;DHT22;13988;52.446;13.280;2023-08-17T13:54:59;26.80;99.90
26262;DHT22;13988;52.446;13.280;2023-08-17T13:57:25;27.00;99.90
26262;DHT22;13988;52.446;13.280;2023-08-17T13:59:51;27.10;99.90
26262;DHT22;13988;52.446;13.280;2023-08-17T14:02:18;26.90;99.90
26262;DHT22;13988;52.446;13.280;2023-08-17T14:04:44;27.00;99.90
26262;DHT22;13988;52.446;13.280;2023-08-17T14:07:09;27.00;99.90
26262;DHT22;13988;52.446;13.280;2023-08-17T14:09:35;27.30;99.90
26262;DHT22;13988;52.446;13.280;2023-08-17T14:12:00;27.20;99.90
26262;DHT22;13988;52.446;13.280;2023-08-17T14:14:27;27.10;99.90
26262;DHT22;13988;52.446;13.280;2023-08-17T14:16:52;27.40;99.90
26262;DHT22;13988;52.446;13.280;2023-08-17T14:19:18;27.50;99.90
26262;DHT22;13988;52.446;13.280;2023-08-17T14:21:43;27.40;99.90
26262;DHT22;13988;52.446;13.280;2023-08-17T14:24:09;27.40;99.90
26262;DHT22;13988;52.446;13.280;2023-08-17T14:26:35;27.30;99.90
26262;DHT22;13988;52.446;13.280;2023-08-17T14:29:01;27.20;99.90
26262;DHT22;13988;52.446;13.280;2023-08-17T14:31:26;27.10;99.90
26262;DHT22;13988;52.446;13.280;2023-08-17T14:33:52;27.20;99.90
26262;DHT22;13988;52.446;13.280;2023-08-17T14:36:17;27.60;99.90
26262;DHT22;13988;52.446;13.280;2023-08-17T14:38:43;27.50;99.90
26262;DHT22;13988;52.446;13.280;2023-08-17T14:41:09;27.40;99.90
26262;DHT22;13988;52.446;13.280;2023-08-17T14:43:35;27.10;99.90
26262;DHT22;13988;52.446;13.280;2023-08-17T14:46:00;27.10;99.90
26262;DHT22;13988;52.446;13.280;2023-08-17T14:48:26;27.00;99.90
26262;DHT22;13988;52.446;13.280;2023-08-17T14:50:51;27.00;99.90
26262;DHT22;13988;52.446;13.280;2023-08-17T14:53:17;26.80;99.90
26262;DHT22;13988;52.446;13.280;2023-08-17T14:55:43;26.50;99.90
26262;DHT22;13988;52.446;13.280;2023-08-17T14:58:09;26.40;99.90
26262;DHT22;13988;52.446;13.280;2023-08-17T15:00:34;26.50;99.90
26262;DHT22;13988;52.446;13.280;2023-08-17T15:03:00;26.90;99.90
26262;DHT22;13988;52.446;13.280;2023-08-17T15:05:26;27.00;99.90
26262;DHT22;13988;52.446;13.280;2023-08-17T15:07:52;27.10;99.90
26262;DHT22;13988;52.446;13.280;2023-08-17T15:10:18;27.50;99.90
26262;DHT22;13988;52.446;13.280;2023-08-17T15:12:44;27.30;99.90
26262;DHT22;13988;52.446;13.280;2023-08-17T15:15:09;27.10;99.90
26262;DHT22;13988;52.446;13.280;2023-08-17T15:17:35;26.80;99.90
26262;DHT22;13988;52.446;13.280;2023-08-17T15:20:01;26.70;99.90
26262;DHT22;13988;52.446;13.280;2023-08-17T15:22:27;26.60;99.90
26262;DHT22;13988;52.446;13.280;2023-08-17T15:24:53;26.60;99.90
26262;DHT22;13988;52.446;13.280;2023-08-17T15:27:19;26.80;99.90